Time;durP1;ratioP1;P1;durP2;ratioP2;P2;SDS_P1;SDS_P2;PMS_P1;PMS_P2;Temp;Humidity;BMP_temperature;BMP_pressure;BME280_temperature;BME280_humidity;BME280_pressure;Samples;Min_cycle;Max_cycle;Signal;HPM_P1;HPM_P2
2022/07/30 00:00:15;;;;;;;;;;;;;;;-142.75;100.00;77009.28;5034732;28;19913;-68
2022/07/30 00:02:40;;;;;;;;;;;;;;;-142.75;100.00;77011.25;5034607;28;19929;-69
2022/07/30 00:05:06;;;;;;;;;;;;;;;-142.75;100.00;77011.25;5033803;28;20448;-68
2022/07/30 00:07:31;;;;;;;;;;;;;;;-142.75;100.00;77007.31;5034239;28;19917;-68
2022/07/30 00:09:56;;;;;;;;;;;;;;;-142.75;100.00;77015.19;5016703;28;20370;-68
2022/07/30 00:12:21;;;;;;;;;;;;;;;-142.75;100.00;77023.06;5034498;28;20592;-68
2022/07/30 00:14:47;;;;;;;;;;;;;;;-142.75;100.00;77027.00;5034390;28;19917;-68
2022/07/30 00:17:12;;;;;;;;;;;;;;;-142.75;100.00;77027.00;5033895;28;19972;-68
2022/07/30 00:19:37;;;;;;;;;;;;;;;-142.75;100.00;77027.00;5016522;28;19913;-66
2022/07/30 00:22:02;;;;;;;;;;;;;;;-142.75;100.00;77028.97;5016579;28;19956;-65
2022/07/30 00:24:27;;;;;;;;;;;;;;;-142.75;100.00;77025.03;5034107;28;19952;-66
2022/07/30 00:26:53;;;;;;;;;;;;;;;-142.75;100.00;77027.00;5033884;28;20522;-65
2022/07/30 00:29:18;;;;;;;;;;;;;;;-142.75;100.00;77034.88;5034121;28;19913;-68
2022/07/30 00:31:43;;;;;;;;;;;;;;;-142.75;100.00;77030.94;5016354;28;19913;-67
2022/07/30 00:34:08;;;;;;;;;;;;;;;-142.75;100.00;77030.94;5033976;28;19922;-68
2022/07/30 00:36:34;;;;;;;;;;;;;;;-142.75;100.00;77027.00;5033632;28;19916;-67
2022/07/30 00:38:59;;;;;;;;;;;;;;;-142.75;100.00;77027.00;5033938;28;19944;-68
2022/07/30 00:41:25;;;;;;;;;;;;;;;-142.75;100.00;77025.03;5034031;28;19920;-68
2022/07/30 00:43:50;;;;;;;;;;;;;;;-142.75;100.00;77021.09;5033848;28;19924;-67
2022/07/30 00:46:15;;;;;;;;;;;;;;;-142.75;100.00;77015.19;5033773;28;19935;-68
2022/07/30 00:48:41;;;;;;;;;;;;;;;-142.75;100.00;77015.19;5033378;28;19917;-67
2022/07/30 00:51:06;;;;;;;;;;;;;;;-142.75;100.00;77027.00;5033695;28;19917;-68
2022/07/30 00:53:32;;;;;;;;;;;;;;;-142.75;100.00;77028.97;5033656;28;19921;-68
2022/07/30 00:55:57;;;;;;;;;;;;;;;-142.75;100.00;77030.94;5033644;28;19940;-68
2022/07/30 00:58:22;;;;;;;;;;;;;;;-142.75;100.00;77032.91;5033186;28;19920;-68
2022/07/30 01:00:47;;;;;;;;;;;;;;;-142.75;100.00;77030.94;5033562;28;19967;-67
2022/07/30 01:03:13;;;;;;;;;;;;;;;-142.75;100.00;77038.81;5033386;28;19975;-68
2022/07/30 01:05:38;;;;;;;;;;;;;;;-142.75;100.00;77044.72;5033356;28;19948;-68
2022/07/30 01:08:03;;;;;;;;;;;;;;;-142.75;100.00;77052.59;5015268;28;19913;-68
2022/07/30 01:10:28;;;;;;;;;;;;;;;-142.75;100.00;77056.53;5031796;28;19935;-66
2022/07/30 01:12:54;;;;;;;;;;;;;;;-142.75;100.00;77058.50;5031602;28;19913;-65
2022/07/30 01:15:20;;;;;;;;;;;;;;;-142.75;100.00;77062.44;5032451;28;19913;-65
2022/07/30 01:17:47;;;;;;;;;;;;;;;-142.75;100.00;77062.44;5031834;28;20325;-65
2022/07/30 01:20:16;;;;;;;;;;;;;;;-142.75;100.00;77066.38;5033153;28;20066;-65
2022/07/30 01:22:45;;;;;;;;;;;;;;;-142.75;100.00;77066.38;5033066;28;20330;-68
2022/07/30 01:25:23;;;;;;;;;;;;;;;-142.75;100.00;77076.22;5033049;28;19916;-68
2022/07/30 01:27:59;;;;;;;;;;;;;;;-142.75;100.00;77078.19;5032657;28;20367;-68
2022/07/30 01:30:27;;;;;;;;;;;;;;;-142.75;100.00;77080.16;5015132;28;19920;-68
2022/07/30 01:32:53;;;;;;;;;;;;;;;-142.75;100.00;77070.31;5032840;28;19913;-68
2022/07/30 01:35:20;;;;;;;;;;;;;;;-142.75;100.00;77070.31;5032926;28;19920;-68
2022/07/30 01:37:45;;;;;;;;;;;;;;;-142.75;100.00;77070.31;5014966;28;20321;-68
2022/07/30 01:40:11;;;;;;;;;;;;;;;-142.75;100.00;77074.25;5032853;28;20003;-68
2022/07/30 01:42:37;;;;;;;;;;;;;;;-142.75;100.00;77090.00;5032726;28;19913;-68
2022/07/30 01:45:03;;;;;;;;;;;;;;;-142.75;100.00;77103.78;5032600;28;19921;-67
2022/07/30 01:47:31;;;;;;;;;;;;;;;-142.75;100.00;77115.59;5032231;28;19953;-68
2022/07/30 01:49:57;;;;;;;;;;;;;;;-142.75;100.00;77119.53;5032682;28;20385;-68
2022/07/30 01:52:25;;;;;;;;;;;;;;;-142.75;100.00;77127.41;5032594;28;19999;-68
2022/07/30 01:54:51;;;;;;;;;;;;;;;-142.75;100.00;77133.31;5032593;28;20413;-67
2022/07/30 01:57:18;;;;;;;;;;;;;;;-142.75;100.00;77129.38;5032183;28;19913;-68
2022/07/30 01:59:46;;;;;;;;;;;;;;;-142.75;100.00;77129.38;5032454;28;19913;-68
2022/07/30 02:02:11;;;;;;;;;;;;;;;-142.75;100.00;77131.34;5032360;28;19940;-67
2022/07/30 02:04:36;;;;;;;;;;;;;;;-142.75;100.00;77131.34;5030582;28;20559;-68
2022/07/30 02:07:05;;;;;;;;;;;;;;;-142.75;100.00;77133.31;5030251;28;19920;-68
2022/07/30 02:09:34;;;;;;;;;;;;;;;-142.75;100.00;77135.28;5013848;28;20015;-68
2022/07/30 02:14:44;;;;;;;;;;;;;;;-142.75;100.00;77135.28;5032686;28;20020;-67
2022/07/30 02:17:12;;;;;;;;;;;;;;;-142.75;100.00;77135.28;5014132;28;20012;-67
2022/07/30 02:19:42;;;;;;;;;;;;;;;-142.75;100.00;77139.22;5032307;28;19913;-68
2022/07/30 02:22:09;;;;;;;;;;;;;;;-142.75;100.00;77145.13;5032269;28;19939;-68
2022/07/30 02:24:36;;;;;;;;;;;;;;;-142.75;100.00;77139.22;5032077;28;20020;-68
2022/07/30 02:27:03;;;;;;;;;;;;;;;-142.75;100.00;77141.19;5029026;28;19924;-68
2022/07/30 02:29:30;;;;;;;;;;;;;;;-142.75;100.00;77145.13;5037172;28;20272;-67
2022/07/30 02:31:56;;;;;;;;;;;;;;;-142.75;100.00;77147.09;5038554;28;19913;-67
2022/07/30 02:34:22;;;;;;;;;;;;;;;-142.75;100.00;77149.06;5038573;28;19917;-67
2022/07/30 02:36:48;;;;;;;;;;;;;;;-142.75;100.00;77151.03;5020363;28;19913;-68
2022/07/30 02:39:15;;;;;;;;;;;;;;;-142.75;100.00;77156.94;5038442;28;19920;-68
2022/07/30 02:41:41;;;;;;;;;;;;;;;-142.75;100.00;77153.00;5038487;28;20008;-68
2022/07/30 02:44:08;;;;;;;;;;;;;;;-142.75;100.00;77149.06;5038493;28;20375;-68
2022/07/30 02:46:35;;;;;;;;;;;;;;;-142.75;100.00;77145.13;5038022;28;20353;-67
2022/07/30 02:49:01;;;;;;;;;;;;;;;-142.75;100.00;77141.19;5038470;28;20370;-67
2022/07/30 02:51:27;;;;;;;;;;;;;;;-142.75;100.00;77145.13;5038407;28;19913;-68
2022/07/30 02:53:53;;;;;;;;;;;;;;;-142.75;100.00;77139.22;5038256;28;19913;-68
2022/07/30 02:56:20;;;;;;;;;;;;;;;-142.75;100.00;77141.19;5038201;28;20370;-68
2022/07/30 02:58:47;;;;;;;;;;;;;;;-142.75;100.00;77145.13;5037587;28;20140;-68
2022/07/30 03:01:14;;;;;;;;;;;;;;;-142.75;100.00;77149.06;5038526;28;19948;-68
2022/07/30 03:03:41;;;;;;;;;;;;;;;-142.75;100.00;77154.97;5038000;28;19924;-68
2022/07/30 03:06:08;;;;;;;;;;;;;;;-142.75;100.00;77158.91;5038060;28;19960;-68
2022/07/30 03:08:33;;;;;;;;;;;;;;;-142.75;100.00;77168.75;5037901;28;20717;-68
2022/07/30 03:10:59;;;;;;;;;;;;;;;-142.75;100.00;77174.66;5038449;28;20001;-67
2022/07/30 03:13:24;;;;;;;;;;;;;;;-142.75;100.00;77174.66;5038360;28;19920;-68
2022/07/30 03:15:50;;;;;;;;;;;;;;;-142.75;100.00;77178.59;5038405;28;19964;-68
2022/07/30 03:18:16;;;;;;;;;;;;;;;-142.75;100.00;77178.59;5037873;28;19917;-68
2022/07/30 03:20:44;;;;;;;;;;;;;;;-142.75;100.00;77182.53;5038271;28;19917;-67
2022/07/30 03:23:11;;;;;;;;;;;;;;;-142.75;100.00;77186.47;5038210;28;19913;-68
2022/07/30 03:25:38;;;;;;;;;;;;;;;-142.75;100.00;77184.50;5038296;28;19913;-68
2022/07/30 03:28:04;;;;;;;;;;;;;;;-142.75;100.00;77184.50;5037887;28;19937;-68
2022/07/30 03:30:30;;;;;;;;;;;;;;;-142.75;100.00;77186.47;5038285;28;19913;-68
2022/07/30 03:32:56;;;;;;;;;;;;;;;-142.75;100.00;77184.50;5038227;28;19913;-68
2022/07/30 03:35:23;;;;;;;;;;;;;;;-142.75;100.00;77190.41;5038152;28;19917;-67
2022/07/30 03:37:49;;;;;;;;;;;;;;;-142.75;100.00;77196.31;5038005;28;20298;-66
2022/07/30 03:40:15;;;;;;;;;;;;;;;-142.75;100.00;77194.34;5035066;28;20362;-65
2022/07/30 03:42:41;;;;;;;;;;;;;;;-142.75;100.00;77194.34;5035292;28;19960;-65
2022/07/30 03:45:07;;;;;;;;;;;;;;;-142.75;100.00;77196.31;5034999;28;20016;-65
2022/07/30 03:47:35;;;;;;;;;;;;;;;-142.75;100.00;77196.31;5034158;28;20283;-65
2022/07/30 03:50:00;;;;;;;;;;;;;;;-142.75;100.00;77196.31;5034800;28;19917;-65
2022/07/30 03:52:26;;;;;;;;;;;;;;;-142.75;100.00;77208.13;5034890;28;19917;-65
2022/07/30 03:54:52;;;;;;;;;;;;;;;-142.75;100.00;77210.09;5034884;28;19925;-68
2022/07/30 03:57:17;;;;;;;;;;;;;;;-142.75;100.00;77216.00;5034368;28;20290;-67
2022/07/30 03:59:42;;;;;;;;;;;;;;;-142.75;100.00;77216.00;5034825;28;19928;-68
2022/07/30 04:02:07;;;;;;;;;;;;;;;-142.75;100.00;77212.06;5034708;28;20275;-68
2022/07/30 04:04:33;;;;;;;;;;;;;;;-142.75;100.00;77204.19;5034489;28;19961;-67
2022/07/30 04:06:58;;;;;;;;;;;;;;;-142.75;100.00;77202.22;5034198;28;19917;-68
2022/07/30 04:09:23;;;;;;;;;;;;;;;-142.75;100.00;77196.31;5034560;28;19920;-68
2022/07/30 04:11:49;;;;;;;;;;;;;;;-142.75;100.00;77190.41;5016828;28;19920;-67
2022/07/30 04:14:14;;;;;;;;;;;;;;;-142.75;100.00;77192.38;5034477;28;19913;-68
2022/07/30 04:16:46;;;;;;;;;;;;;;;-142.75;100.00;77188.44;5034090;28;19913;-67
2022/07/30 04:19:15;;;;;;;;;;;;;;;-142.75;100.00;77182.53;5055775;22;19932;-70
2022/07/30 04:21:41;;;;;;;;;;;;;;;-142.75;100.00;77180.56;5033494;28;19921;-70
2022/07/30 04:24:07;;;;;;;;;;;;;;;-142.75;100.00;77172.69;5034348;28;19918;-70
2022/07/30 04:26:34;;;;;;;;;;;;;;;-142.75;100.00;77176.63;5032753;28;19952;-69
2022/07/30 04:29:00;;;;;;;;;;;;;;;-142.75;100.00;77176.63;5034250;28;19917;-73
2022/07/30 04:31:26;;;;;;;;;;;;;;;-142.75;100.00;77172.69;5034171;28;19920;-73
2022/07/30 04:33:52;;;;;;;;;;;;;;;-142.75;100.00;77172.69;5032779;28;20012;-73
2022/07/30 04:36:17;;;;;;;;;;;;;;;-142.75;100.00;77176.63;5034067;28;19945;-73
2022/07/30 04:38:42;;;;;;;;;;;;;;;-142.75;100.00;77176.63;5033759;28;20350;-73
2022/07/30 04:41:08;;;;;;;;;;;;;;;-142.75;100.00;77176.63;5033032;28;20302;-71
2022/07/30 04:43:33;;;;;;;;;;;;;;;-142.75;100.00;77170.72;5033972;28;19964;-72
2022/07/30 04:45:58;;;;;;;;;;;;;;;-142.75;100.00;77174.66;5033923;28;19917;-73
2022/07/30 04:48:25;;;;;;;;;;;;;;;-142.75;100.00;77164.81;5033477;28;20280;-72
2022/07/30 04:50:52;;;;;;;;;;;;;;;-142.75;100.00;77164.81;5033604;28;19913;-73
2022/07/30 04:53:18;;;;;;;;;;;;;;;-142.75;100.00;77154.97;5033750;28;19964;-73
2022/07/30 04:55:45;;;;;;;;;;;;;;;-142.75;100.00;77145.13;5033801;28;19913;-73
2022/07/30 04:58:12;;;;;;;;;;;;;;;-142.75;100.00;77137.25;5033269;28;19935;-74
2022/07/30 05:00:38;;;;;;;;;;;;;;;-142.75;100.00;77133.31;5032906;28;19917;-72
2022/07/30 05:03:04;;;;;;;;;;;;;;;-142.75;100.00;77129.38;5033241;28;19988;-71
2022/07/30 05:05:31;;;;;;;;;;;;;;;-142.75;100.00;77125.44;5032979;28;20414;-73
2022/07/30 05:07:57;;;;;;;;;;;;;;;-142.75;100.00;77117.56;5032689;28;20286;-72
2022/07/30 05:10:22;;;;;;;;;;;;;;;-142.75;100.00;77103.78;5032983;28;19913;-72
2022/07/30 05:12:48;;;;;;;;;;;;;;;-142.75;100.00;77088.03;5032875;28;20379;-73
2022/07/30 05:15:13;;;;;;;;;;;;;;;-142.75;100.00;77080.16;5032991;28;19913;-72
2022/07/30 05:17:38;;;;;;;;;;;;;;;-142.75;100.00;77068.34;5032588;28;19917;-72
2022/07/30 05:20:04;;;;;;;;;;;;;;;-142.75;100.00;77058.50;5033291;28;19913;-73
2022/07/30 05:22:29;;;;;;;;;;;;;;;-142.75;100.00;77050.63;5033197;28;19916;-73
2022/07/30 05:24:55;;;;;;;;;;;;;;;-142.75;100.00;77040.78;5031797;28;20371;-73
2022/07/30 05:27:20;;;;;;;;;;;;;;;-142.75;100.00;77030.94;5031444;28;20015;-73
2022/07/30 05:29:45;;;;;;;;;;;;;;;-142.75;100.00;77025.03;5032893;28;19913;-73
2022/07/30 05:32:11;;;;;;;;;;;;;;;-142.75;100.00;77011.25;5032951;28;19920;-71
2022/07/30 05:34:36;;;;;;;;;;;;;;;-142.75;100.00;76997.47;5032918;28;20015;-73
2022/07/30 05:37:01;;;;;;;;;;;;;;;-142.75;100.00;76987.63;5032633;28;19920;-73
2022/07/30 05:39:27;;;;;;;;;;;;;;;-142.75;100.00;76977.78;5031554;28;19913;-73
2022/07/30 05:41:52;;;;;;;;;;;;;;;-142.75;100.00;76967.94;5032863;28;19913;-73
2022/07/30 05:44:18;;;;;;;;;;;;;;;-142.75;100.00;76956.13;5031682;28;20385;-75
2022/07/30 05:46:43;;;;;;;;;;;;;;;-142.75;100.00;76946.28;5032400;28;19920;-73
2022/07/30 05:49:08;;;;;;;;;;;;;;;-142.75;100.00;76932.50;5032582;28;19967;-73
2022/07/30 05:51:33;;;;;;;;;;;;;;;-142.75;100.00;76926.59;5031462;28;19975;-73
2022/07/30 05:53:58;;;;;;;;;;;;;;;-142.75;100.00;76904.94;5032714;28;20447;-73
2022/07/30 05:56:24;;;;;;;;;;;;;;;-142.75;100.00;76893.13;5031301;28;19913;-70
2022/07/30 05:58:49;;;;;;;;;;;;;;;-142.75;100.00;76877.38;5034138;28;20293;-73
2022/07/30 06:01:14;;;;;;;;;;;;;;;-142.75;100.00;76867.53;5044474;28;19916;-73
2022/07/30 06:03:39;;;;;;;;;;;;;;;-142.75;100.00;76857.69;5051508;28;20377;-73
2022/07/30 06:06:05;;;;;;;;;;;;;;;-142.75;100.00;76838.00;5052325;28;19982;-73
2022/07/30 06:08:31;;;;;;;;;;;;;;;-142.75;100.00;76820.28;5051876;28;19913;-73
2022/07/30 06:10:56;;;;;;;;;;;;;;;-142.75;100.00;76802.56;5052186;28;19913;-73
2022/07/30 06:13:21;;;;;;;;;;;;;;;-142.75;100.00;76794.69;5050708;28;19955;-73
2022/07/30 06:15:46;;;;;;;;;;;;;;;-142.75;100.00;76777.00;5052065;28;19913;-74
2022/07/30 06:18:12;;;;;;;;;;;;;;;-142.75;100.00;76759.28;5051441;28;19917;-73
2022/07/30 06:20:37;;;;;;;;;;;;;;;-142.75;100.00;76755.34;5052039;28;19913;-72
2022/07/30 06:23:02;;;;;;;;;;;;;;;-142.75;100.00;76741.56;5052045;28;20263;-73
2022/07/30 06:25:27;;;;;;;;;;;;;;;-142.75;100.00;76733.69;5051860;28;19927;-73
2022/07/30 06:27:52;;;;;;;;;;;;;;;-142.75;100.00;76715.97;5050389;28;19913;-73
2022/07/30 06:30:18;;;;;;;;;;;;;;;-142.75;100.00;76704.16;5051887;28;20374;-73
2022/07/30 06:32:44;;;;;;;;;;;;;;;-142.75;100.00;76688.41;5051953;28;19912;-75
2022/07/30 06:35:09;;;;;;;;;;;;;;;-142.75;100.00;76672.66;5050252;28;19919;-73
2022/07/30 06:37:35;;;;;;;;;;;;;;;-142.75;100.00;76664.78;5049891;28;19913;-73
2022/07/30 06:40:00;;;;;;;;;;;;;;;-142.75;100.00;76654.94;5051129;28;19919;-73
2022/07/30 06:42:25;;;;;;;;;;;;;;;-142.75;100.00;76631.31;5051937;28;19913;-73
2022/07/30 06:44:50;;;;;;;;;;;;;;;-142.75;100.00;76629.34;5050639;28;19921;-73
2022/07/30 06:47:24;;;;;;;;;;;;;;;-142.75;100.00;76613.59;5050288;28;19913;-73
2022/07/30 06:49:50;;;;;;;;;;;;;;;-142.75;100.00;76593.91;5050831;28;19967;-73
2022/07/30 06:52:15;;;;;;;;;;;;;;;-142.75;100.00;76582.09;5052057;28;19913;-73
2022/07/30 06:54:40;;;;;;;;;;;;;;;-142.75;100.00;76564.38;5052161;28;19921;-73
2022/07/30 06:57:05;;;;;;;;;;;;;;;-142.75;100.00;76542.72;5050396;28;19920;-73
2022/07/30 06:59:30;;;;;;;;;;;;;;;-142.75;100.00;76525.03;5051577;28;19913;-73
2022/07/30 07:01:56;;;;;;;;;;;;;;;-142.75;100.00;76501.41;5051706;28;19912;-73
2022/07/30 07:04:21;;;;;;;;;;;;;;;-142.75;100.00;76479.75;5052059;28;19921;-74
2022/07/30 07:06:47;;;;;;;;;;;;;;;-142.75;100.00;76452.19;5050181;28;19913;-72
2022/07/30 07:09:12;;;;;;;;;;;;;;;-142.75;100.00;76440.38;5051666;28;19912;-72
2022/07/30 07:11:37;;;;;;;;;;;;;;;-142.75;100.00;76424.63;5051697;28;20370;-71
2022/07/30 07:14:02;;;;;;;;;;;;;;;-142.75;100.00;76416.75;5051652;28;19951;-73
2022/07/30 07:16:27;;;;;;;;;;;;;;;-142.75;100.00;76408.88;5054765;28;20003;-71
2022/07/30 07:18:53;;;;;;;;;;;;;;;-142.75;100.00;76397.06;5055053;28;20023;-73
2022/07/30 07:21:19;;;;;;;;;;;;;;;-142.75;100.00;76393.13;5054168;28;19999;-72
2022/07/30 07:23:44;;;;;;;;;;;;;;;-142.75;100.00;76397.06;5054036;28;19923;-71
2022/07/30 07:26:10;;;;;;;;;;;;;;;-142.75;100.00;76383.28;5055325;28;19916;-72
2022/07/30 07:28:35;;;;;;;;;;;;;;;-142.75;100.00;76381.31;5053484;28;19912;-70
2022/07/30 07:31:00;;;;;;;;;;;;;;;-142.75;100.00;76385.25;5053237;28;20427;-71
2022/07/30 07:33:26;;;;;;;;;;;;;;;-142.75;100.00;76365.56;5052845;28;19966;-71
2022/07/30 07:35:53;;;;;;;;;;;;;;;-142.75;100.00;76351.81;5052982;28;20023;-71
2022/07/30 07:38:18;;;;;;;;;;;;;;;-142.75;100.00;76355.72;5053888;28;19920;-71
2022/07/30 07:40:44;;;;;;;;;;;;;;;-142.75;100.00;76330.16;5054141;28;20373;-72
2022/07/30 07:43:10;;;;;;;;;;;;;;;-142.75;100.00;76304.56;5053866;28;19921;-72
2022/07/30 07:45:35;;;;;;;;;;;;;;;-142.75;100.00;76302.59;5053810;28;20039;-70
2022/07/30 07:48:00;;;;;;;;;;;;;;;-142.75;100.00;76290.78;5052173;28;19917;-71
2022/07/30 07:50:25;;;;;;;;;;;;;;;-142.75;100.00;76257.31;5042481;28;19913;-71
2022/07/30 07:52:50;;;;;;;;;;;;;;;-142.75;100.00;76253.38;5032147;28;19917;-71
2022/07/30 07:55:16;;;;;;;;;;;;;;;-142.75;100.00;76259.28;5033568;28;19970;-71
2022/07/30 07:57:42;;;;;;;;;;;;;;;-142.75;100.00;76251.41;5033441;28;20294;-71
2022/07/30 08:00:09;;;;;;;;;;;;;;;-142.75;100.00;76227.78;5033800;28;19913;-71
2022/07/30 08:02:34;;;;;;;;;;;;;;;-142.75;100.00;76219.91;5033881;28;19931;-71
2022/07/30 08:05:00;;;;;;;;;;;;;;;-142.75;100.00;76223.84;5034142;28;20011;-72
2022/07/30 08:07:25;;;;;;;;;;;;;;;-142.75;100.00;76200.25;5033524;28;20351;-71
2022/07/30 08:09:50;;;;;;;;;;;;;;;-142.75;100.00;76166.78;5032145;28;19917;-71
2022/07/30 08:12:15;;;;;;;;;;;;;;;-142.75;100.00;76160.88;5033278;28;19922;-71
2022/07/30 08:14:40;;;;;;;;;;;;;;;-142.75;100.00;76137.25;5033465;28;20378;-72
2022/07/30 08:17:06;;;;;;;;;;;;;;;-142.75;100.00;76113.63;5033358;28;19913;-72
2022/07/30 08:19:31;;;;;;;;;;;;;;;-142.75;100.00;76097.88;5032047;28;19918;-71
2022/07/30 08:21:58;;;;;;;;;;;;;;;-142.75;100.00;76072.31;5033388;28;19921;-71
2022/07/30 08:24:23;;;;;;;;;;;;;;;-142.75;98.63;76086.06;5033441;28;19917;-72
2022/07/30 08:26:48;;;;;;;;;;;;;;;-142.75;100.00;76076.22;5031146;28;20000;-71
2022/07/30 08:29:14;;;;;;;;;;;;;;;-142.75;100.00;76054.59;5033094;28;20290;-71
2022/07/30 08:31:39;;;;;;;;;;;;;;;-142.75;100.00;76027.03;5033268;28;19944;-73
2022/07/30 08:34:04;;;;;;;;;;;;;;;-142.75;91.21;76023.09;5033258;28;19913;-71
2022/07/30 08:36:29;;;;;;;;;;;;;;;-142.75;97.39;76005.38;5033056;28;19917;-71
2022/07/30 08:38:54;;;;;;;;;;;;;;;-142.75;100.00;75977.81;5032867;28;20000;-72
2022/07/30 08:41:20;;;;;;;;;;;;;;;-142.75;93.67;75960.13;5032800;28;19917;-73
2022/07/30 08:43:46;;;;;;;;;;;;;;;-142.75;90.41;75940.44;5031743;28;19918;-72
2022/07/30 08:46:12;;;;;;;;;;;;;;;-142.75;88.33;75938.47;5031607;28;19913;-72
2022/07/30 08:48:39;;;;;;;;;;;;;;;-142.75;90.48;75908.94;5032539;28;19917;-71
2022/07/30 08:51:05;;;;;;;;;;;;;;;-142.75;85.56;75918.78;5033009;28;19921;-69
2022/07/30 08:53:31;;;;;;;;;;;;;;;-142.75;84.29;75905.00;5033032;28;20313;-71
2022/07/30 08:55:56;;;;;;;;;;;;;;;-142.75;83.49;75893.19;5032663;28;19913;-73
2022/07/30 08:58:29;;;;;;;;;;;;;;;-142.75;86.85;75875.47;5032486;28;19920;-72
2022/07/30 09:00:54;;;;;;;;;;;;;;;-142.75;86.03;75853.84;5033036;28;19986;-73
2022/07/30 09:03:20;;;;;;;;;;;;;;;-142.75;81.20;75861.69;5032704;28;20670;-72
2022/07/30 09:05:45;;;;;;;;;;;;;;;-142.75;84.17;75857.78;5031544;28;19924;-72
2022/07/30 09:08:10;;;;;;;;;;;;;;;-142.75;82.84;75849.91;5032299;28;19924;-72
2022/07/30 09:10:35;;;;;;;;;;;;;;;-142.75;83.97;75836.13;5032548;28;19919;-72
2022/07/30 09:13:00;;;;;;;;;;;;;;;-142.75;82.96;75818.41;5032448;28;19913;-72
2022/07/30 09:15:27;;;;;;;;;;;;;;;-142.75;80.35;75840.06;5032445;28;19936;-72
2022/07/30 09:18:00;;;;;;;;;;;;;;;-142.75;78.65;75822.34;5031984;28;19952;-72
2022/07/30 09:20:27;;;;;;;;;;;;;;;-142.75;80.63;75796.75;5032658;28;20383;-72
2022/07/30 09:22:54;;;;;;;;;;;;;;;-142.75;79.32;75782.97;5032486;28;20402;-72
2022/07/30 09:25:36;;;;;;;;;;;;;;;-142.75;79.09;75753.47;5032369;28;19928;-72
2022/07/30 09:28:01;;;;;;;;;;;;;;;-142.75;72.63;75751.50;5031938;28;19971;-72
2022/07/30 09:30:41;;;;;;;;;;;;;;;-142.75;75.51;75735.75;5029432;28;19913;-71
2022/07/30 09:33:06;;;;;;;;;;;;;;;-142.75;78.72;75723.94;5050012;28;20361;-72
2022/07/30 09:35:31;;;;;;;;;;;;;;;-142.75;76.22;75692.44;5051961;28;19951;-73
2022/07/30 09:37:57;;;;;;;;;;;;;;;-142.75;72.02;75686.53;5050622;28;19919;-71
2022/07/30 09:40:22;;;;;;;;;;;;;;;-142.75;72.61;75684.56;5051618;28;19916;-72
2022/07/30 09:42:59;;;;;;;;;;;;;;;-142.75;71.60;75682.59;5050536;28;20271;-72
2022/07/30 09:45:25;;;;;;;;;;;;;;;-142.75;73.33;75660.97;5051705;28;20012;-72
2022/07/30 09:47:50;;;;;;;;;;;;;;;-142.75;68.80;75647.19;5051295;28;20003;-72
2022/07/30 09:50:16;;;;;;;;;;;;;;;-142.75;68.49;75629.47;5050511;28;19962;-72
2022/07/30 09:52:42;;;;;;;;;;;;;;;-142.75;69.96;75631.44;5050119;28;19917;-72
2022/07/30 09:55:08;;;;;;;;;;;;;;;-142.75;69.13;75621.59;5050282;28;19913;-72
2022/07/30 09:57:33;;;;;;;;;;;;;;;-142.75;70.88;75605.84;5050050;28;20007;-72
2022/07/30 10:00:15;;;;;;;;;;;;;;;-142.75;66.12;75615.69;5050183;28;20348;-72
2022/07/30 10:02:41;;;;;;;;;;;;;;;-142.75;67.16;75645.22;5051773;28;20457;-72
2022/07/30 10:05:10;;;;;;;;;;;;;;;-142.75;70.40;75613.72;5051019;28;19917;-72
2022/07/30 10:07:35;;;;;;;;;;;;;;;-142.75;67.16;75592.09;5049672;28;20413;-72
2022/07/30 10:10:01;;;;;;;;;;;;;;;-142.75;66.36;75594.06;5049729;28;20008;-72
2022/07/30 10:12:27;;;;;;;;;;;;;;;-142.75;66.28;75590.13;5049777;28;19952;-73
2022/07/30 10:14:52;;;;;;;;;;;;;;;-142.75;66.48;75605.84;5050400;28;19912;-71
2022/07/30 10:17:20;;;;;;;;;;;;;;;-142.75;68.37;75584.22;5039450;28;19932;-71
2022/07/30 10:19:46;;;;;;;;;;;;;;;-142.75;65.08;75572.41;5030949;28;19923;-71
2022/07/30 10:22:12;;;;;;;;;;;;;;;-142.75;67.48;75550.75;5031608;28;19913;-71
2022/07/30 10:24:39;;;;;;;;;;;;;;;-142.75;65.77;75533.03;5030185;28;20396;-69
2022/07/30 10:27:07;;;;;;;;;;;;;;;-142.75;65.60;75523.19;5053162;22;20019;-67
2022/07/30 10:29:33;;;;;;;;;;;;;;;-142.75;65.21;75513.38;5031553;28;20452;-68
2022/07/30 10:31:59;;;;;;;;;;;;;;;-142.75;65.60;75509.44;5031523;28;19913;-67
2022/07/30 10:34:24;;;;;;;;;;;;;;;-142.75;62.91;75495.66;5032155;28;19996;-67
2022/07/30 10:36:51;;;;;;;;;;;;;;;-142.75;63.20;75511.41;5009233;28;20676;-67
2022/07/30 10:39:25;;;;;;;;;;;;;;;-142.75;65.51;75513.38;5021186;28;19945;-67
2022/07/30 10:41:56;;;;;;;;;;;;;;;-142.75;66.14;75499.59;5022596;28;19917;-67
2022/07/30 10:44:32;;;;;;;;;;;;;;;-142.75;65.59;75499.59;5021064;28;20015;-67
2022/07/30 10:47:02;;;;;;;;;;;;;;;-142.75;65.94;75517.28;5021463;28;19913;-67
2022/07/30 10:49:28;;;;;;;;;;;;;;;-142.75;66.39;75525.16;5022507;28;20306;-67
2022/07/30 10:51:56;;;;;;;;;;;;;;;-142.75;67.10;75535.00;5023942;28;19917;-68
2022/07/30 10:54:33;;;;;;;;;;;;;;;-142.75;67.32;75554.69;5025741;28;20003;-68
2022/07/30 10:57:05;;;;;;;;;;;;;;;-142.75;68.09;75582.25;5025262;28;20012;-67
2022/07/30 10:59:50;;;;;;;;;;;;;;;-142.75;67.69;75594.06;5024950;28;19996;-67
2022/07/30 11:02:16;;;;;;;;;;;;;;;-142.75;69.66;75619.63;5027168;28;19913;-67
2022/07/30 11:04:41;;;;;;;;;;;;;;;-142.75;71.90;75633.41;5027024;28;19975;-68
2022/07/30 11:07:26;;;;;;;;;;;;;;;-142.75;71.49;75611.75;5025433;28;19913;-68
2022/07/30 11:09:52;;;;;;;;;;;;;;;-142.75;69.47;75615.69;5026626;28;20024;-66
2022/07/30 11:12:36;;;;;;;;;;;;;;;-142.75;69.75;75653.09;5025339;28;19913;-66
2022/07/30 11:15:02;;;;;;;;;;;;;;;-142.75;68.39;75666.88;5026109;28;20433;-66
2022/07/30 11:17:47;;;;;;;;;;;;;;;-142.75;69.00;75688.50;5024093;28;19913;-66
2022/07/30 11:20:12;;;;;;;;;;;;;;;-142.75;71.24;75710.16;5026912;28;19925;-66
2022/07/30 11:22:43;;;;;;;;;;;;;;;-142.75;71.86;75731.81;5023878;28;19913;-67
2022/07/30 11:25:28;;;;;;;;;;;;;;;-142.75;72.88;75769.19;5024146;28;19917;-67
2022/07/30 11:27:54;;;;;;;;;;;;;;;-142.75;74.70;75755.44;5025361;28;20032;-67
2022/07/30 11:30:19;;;;;;;;;;;;;;;-142.75;76.35;75767.22;5023695;28;20395;-68
2022/07/30 11:32:45;;;;;;;;;;;;;;;-142.75;76.52;75784.94;5025603;28;20296;-66
2022/07/30 11:35:13;;;;;;;;;;;;;;;-142.75;77.39;75798.72;5024673;28;19919;-67
2022/07/30 11:37:54;;;;;;;;;;;;;;;-142.75;76.25;75796.75;5022860;28;20441;-67
2022/07/30 11:40:22;;;;;;;;;;;;;;;-142.75;81.05;75798.72;5023953;28;20280;-68
2022/07/30 11:42:48;;;;;;;;;;;;;;;-142.75;74.76;75806.59;5025215;28;19913;-68
2022/07/30 11:45:21;;;;;;;;;;;;;;;-142.75;75.74;75810.53;5025432;28;19987;-67
2022/07/30 11:47:57;;;;;;;;;;;;;;;-142.75;77.33;75812.50;5025465;28;19952;-67
2022/07/30 11:50:32;;;;;;;;;;;;;;;-142.75;82.42;75788.88;5025747;28;19917;-67
2022/07/30 11:52:57;;;;;;;;;;;;;;;-142.75;78.71;75779.03;5025695;28;19914;-67
2022/07/30 11:55:26;;;;;;;;;;;;;;;-142.75;80.42;75759.38;5022889;28;19921;-66
2022/07/30 11:57:51;;;;;;;;;;;;;;;-142.75;76.64;75739.69;4999719;28;19918;-68
2022/07/30 12:00:17;;;;;;;;;;;;;;;-142.75;77.82;75720.00;5024795;28;19914;-68
2022/07/30 12:02:43;;;;;;;;;;;;;;;-142.75;73.59;75708.19;5023517;28;19920;-68
2022/07/30 12:05:08;;;;;;;;;;;;;;;-142.75;73.38;75704.25;5024799;28;19923;-68
2022/07/30 12:07:34;;;;;;;;;;;;;;;-142.75;74.32;75696.38;5007064;28;20375;-67
2022/07/30 12:10:12;;;;;;;;;;;;;;;-142.75;73.20;75688.50;5023562;28;19937;-67
2022/07/30 12:12:37;;;;;;;;;;;;;;;-142.75;74.26;75668.84;5023935;28;20279;-67
2022/07/30 12:15:03;;;;;;;;;;;;;;;-142.75;72.55;75660.97;5025651;28;19921;-67
2022/07/30 12:17:44;;;;;;;;;;;;;;;-142.75;71.80;75645.22;5024220;28;19913;-67
2022/07/30 12:20:16;;;;;;;;;;;;;;;-142.75;71.75;75637.34;5025848;28;19913;-68